Terminal Aerodrome Forecast
Issued by NWS

Home | Current Version | Previous Version | Text Only | Print | Product List | Glossary On
Versions: 1 2 3 4 5 6 7 8 9 10 11 12 13 14 15 16 17 18 19 20 21 22 23
848
FTUS43 KABR 300520
TAFATY
TAF
KATY 300520Z 3006/3106 17003KT P6SM SKC
     FM301400 15009KT P6SM SCT090
     FM310100 16012KT P6SM -SHRA VCTS BKN090CB
     FM310300 16008KT P6SM BKN060=

USA.gov is the U.S. government's official web portal to all federal, state and local government web resources and services.